KLSV/LSV METAR and TAF weather

Enter ICAO airport designator
Station Type Date Time Source
KLSV METAR 2019/08/22 05:55 UTC NOAA

KLSV 220555Z 16009KT 10SM CLR 35/M06 A2971 RMK AO2A SLP002 WND DATA ESTMD T03501059 10417 20337 52004 $


Station Type Date Time Source
KLSV Decoded METAR 2019/08/22 05:55 UTC NOAA

Station name not available
Aug 22, 2019 - 01:55 AM EDT / 2019.08.22 0555 UTC
Wind: from the SSE (160 degrees) at 10 MPH (9 KT):0
Visibility: 10 mile(s):0
Sky conditions: clear
Temperature: 95.0 F (35.0 C)
Dew Point: 21.4 F (-5.9 C)
Relative Humidity: 6%
Pressure (altimeter): 29.71 in. Hg (1006 hPa)
Pressure tendency: 0.01 inches (0.4 hPa) higher than three hours ago
ob: KLSV 220555Z 16009KT 10SM CLR 35/M06 A2971 RMK AO2A SLP002 WND DATA ESTMD T03501059 10417 20337 52004
cycle: 6

Station Type Date Time Source
KLSV TAF 2019/08/22 07:03 UTC NOAA

TAF TAF KLSV 220700Z 2207/2313 VRB06KT 9999 FEW250 QNH2970INS
BECMG 2216/2217 15010G18KT 9999 SCT250 QNH2964INS
TEMPO 2219/2223 17015G27KT 520009
BECMG 2222/2223 17015G27KT 9999 SCT250 520009 QNH2961INS
BECMG 2306/2307 17012G18KT 9999 FEW250 QNH2968INS
BECMG 2309/2310 VRB06KT 9999 SKC QNH2972INS TX41/2222Z TN25/2212Z

Example: see airport list